Latest Weather Observations for Narrandera Airport

IDN60801

Issued at 11:33 am EST Friday 29 July 2016 (issued every 30 minutes, with the page automatically refreshed every 10 minutes)

About weather observations | Map of weather stations | Latest weather observations for NSW | Other Formats
Station Details ID: 074148 Name: NARRANDERA AIRPORT AWS Lat: -34.70 Lon: 146.51 Height: 145.0 m
Data from the previous 72 hours. | See also: Recent months at Narrandera Airport
Date/Time
EST
Temp
°C
App
Temp
°C
Dew
Point
°C
Rel
Hum
%
Delta-T
°C
Wind Press
QNH
hPa
Press
MSL
hPa
Rain since
9am
mm
Dir  Spd
km/h
Gust
km/h
Spd
kts
Gust
kts
29/11:30am 10.6 7.6 5.8 72 2.2 W 11 15 6 8 1026.1 1026.4 0.0
29/11:00am 10.5 8.0 6.5 76 1.9 WNW 9 11 5 6 1026.3 1026.6 0.0
29/10:30am 9.9 7.9 7.2 83 1.3 W 7 13 4 7 1026.5 1026.8 0.0
29/10:00am 9.5 7.7 7.8 89 0.8 WSW 7 9 4 5 1027.0 1027.3 0.0
29/09:30am 9.1 7.6 8.5 96 0.3 WSW 6 9 3 5 1027.1 1027.4 0.0
29/09:00am 8.7 8.4 8.6 99 0.0 CALM 0 0 0 0 1026.9 1027.2 0.4
29/08:30am 8.3 7.9 8.3 100 0.0 CALM 0 0 0 0 1027.0 1027.3 0.4
29/08:00am 8.0 6.4 8.0 100 0.0 NNW 6 9 3 5 1026.6 1027.0 0.4
29/07:30am 7.8 6.5 7.7 99 0.0 NNW 4 7 2 4 1026.5 1026.8 0.4
29/07:00am 7.8 7.3 7.7 99 0.0 CALM 0 0 0 0 1026.5 1026.8 0.4
29/06:30am 7.7 7.1 7.6 99 0.0 CALM 0 6 0 3 1026.4 1026.7 0.4
29/06:00am 8.2 6.4 8.1 99 0.0 W 7 9 4 5 1026.3 1026.6 0.4
29/05:30am 8.2 6.1 8.1 99 0.0 SW 9 15 5 8 1026.2 1026.5 0.2
29/05:00am 8.1 6.3 8.0 99 0.0 SW 7 9 4 5 1026.0 1026.3 0.2
29/04:30am 7.9 6.3 7.8 99 0.0 WSW 6 9 3 5 1025.8 1026.1 0.2
29/04:00am 7.9 7.4 7.8 99 0.0 CALM 0 0 0 0 1025.4 1025.7 0.2
29/03:30am 8.0 7.5 7.9 99 0.0 CALM 0 0 0 0 1025.6 1025.9 0.2
29/03:00am 8.1 7.6 8.0 99 0.0 CALM 0 0 0 0 1025.7 1026.0 0.2
29/02:30am 8.0 7.1 7.9 99 0.0 WSW 2 7 1 4 1025.9 1026.2 0.2
29/02:00am 8.0 7.5 7.9 99 0.0 CALM 0 0 0 0 1026.0 1026.3 0.2
29/01:30am 7.9 7.4 7.8 99 0.0 CALM 0 0 0 0 1026.2 1026.5 0.2
29/01:00am 8.0 7.5 7.9 99 0.0 CALM 0 7 0 4 1026.4 1026.7 0.2
29/12:30am 8.0 6.4 7.9 99 0.0 NW 6 9 3 5 1026.5 1026.8 0.2
29/12:00am 8.0 6.4 7.9 99 0.0 NW 6 7 3 4 1026.6 1027.0 0.2
 
Date/Time
EST
Temp
°C
App
Temp
°C
Dew
Point
°C
Rel
Hum
%
Delta-T
°C
Wind Press
QNH
hPa
Press
MSL
hPa
Rain since
9am
mm
Dir  Spd
km/h
Gust
km/h
Spd
kts
Gust
kts
28/11:30pm 8.1 7.3 8.0 99 0.0 N 2 7 1 4 1026.6 1027.0 0.2
28/11:00pm 8.1 6.9 8.0 99 0.0 NW 4 11 2 6 1027.0 1027.3 0.2
28/10:30pm 7.8 6.1 7.7 99 0.0 NNW 6 9 3 5 1027.2 1027.5 0.0
28/10:00pm 8.1 7.3 8.0 99 0.0 N 2 6 1 3 1027.5 1027.8 0.0
28/09:30pm 8.0 7.5 7.9 99 0.0 CALM 0 0 0 0 1027.7 1028.0 0.0
28/09:00pm 7.5 6.8 6.9 96 0.3 CALM 0 0 0 0 1027.6 1027.9 0.0
28/08:30pm 8.0 7.4 7.4 96 0.3 CALM 0 6 0 3 1027.7 1028.0 0.0
28/08:00pm 7.8 6.1 7.4 97 0.2 NW 6 7 3 4 1027.7 1028.0 0.0
28/07:30pm 8.0 7.3 6.9 93 0.5 CALM 0 0 0 0 1027.7 1028.0 0.0
28/07:00pm 8.5 6.7 7.0 90 0.7 WNW 6 13 3 7 1027.6 1027.9 0.0
28/06:30pm 8.4 7.8 7.2 92 0.6 CALM 0 0 0 0 1027.4 1027.7 0.0
28/06:00pm 8.8 8.2 7.4 91 0.7 CALM 0 0 0 0 1027.2 1027.5 0.0
28/05:30pm 8.9 6.9 7.0 88 0.9 NW 7 9 4 5 1027.2 1027.5 0.0
28/05:00pm 9.3 7.4 7.4 88 0.9 W 7 9 4 5 1027.2 1027.5 0.0
28/04:30pm 9.5 6.8 7.4 87 1.0 W 11 17 6 9 1027.2 1027.5 0.0
28/04:00pm 9.9 6.7 7.0 82 1.4 W 13 15 7 8 1027.2 1027.5 0.0
28/03:30pm 10.7 7.4 6.6 76 1.9 WSW 13 20 7 11 1027.1 1027.4 0.0
28/03:00pm 10.7 7.4 6.3 74 2.1 WNW 13 19 7 10 1027.0 1027.3 0.0
28/02:30pm 10.8 7.4 5.8 71 2.3 WNW 13 20 7 11 1026.9 1027.2 0.0
28/02:00pm 10.6 7.3 6.2 74 2.1 W 13 20 7 11 1027.1 1027.4 0.0
28/01:30pm 10.6 7.2 6.0 73 2.2 WSW 13 19 7 10 1027.4 1027.7 0.0
28/01:00pm 10.2 7.2 5.8 74 2.0 WSW 11 15 6 8 1027.9 1028.2 0.0
28/12:30pm 10.2 6.5 6.2 76 1.9 W 15 20 8 11 1028.1 1028.4 0.0
28/12:00pm 10.2 6.0 5.6 73 2.1 WSW 17 22 9 12 1028.5 1028.8 0.0
28/11:30am 10.3 6.1 5.5 72 2.2 W 17 26 9 14 1028.8 1029.1 0.0
28/11:00am 10.5 7.2 6.6 77 1.8 WSW 13 20 7 11 1028.9 1029.2 0.0
28/10:30am 10.0 6.3 6.5 79 1.6 WSW 15 20 8 11 1029.1 1029.4 0.0
28/10:00am 9.1 6.2 6.7 85 1.1 WSW 11 20 6 11 1029.0 1029.3 0.0
28/09:30am 7.3 5.2 6.7 96 0.3 WNW 7 11 4 6 1029.0 1029.3 0.0
28/09:00am 6.0 3.7 5.9 99 0.0 NW 7 9 4 5 1028.8 1029.1 1.2
28/08:30am 4.9 2.4 4.8 99 0.0 NW 7 9 4 5 1028.5 1028.8 1.2
28/08:00am 3.3 1.8 3.2 99 0.0 CALM 0 0 0 0 1028.2 1028.5 1.2
28/07:30am 2.0 -0.1 1.9 99 0.0 NW 2 6 1 3 1027.8 1028.1 1.2
28/07:00am 1.9 0.2 1.8 99 0.0 CALM 0 0 0 0 1027.3 1027.6 1.2
28/06:30am 2.4 0.8 2.3 99 0.0 CALM 0 0 0 0 1027.1 1027.4 1.2
28/06:00am 2.4 0.8 2.3 99 0.0 CALM 0 0 0 0 1026.7 1027.1 1.2
28/05:30am 2.4 0.8 2.3 99 0.0 CALM 0 0 0 0 1026.6 1027.0 1.2
28/05:00am 2.9 1.4 2.8 99 0.0 CALM 0 0 0 0 1026.2 1026.5 1.2
28/04:30am 3.2 0.0 3.1 99 0.0 WNW 9 11 5 6 1026.1 1026.4 1.2
28/04:00am 3.5 0.7 3.4 99 0.0 N 7 9 4 5 1026.0 1026.3 1.2
28/03:30am 3.8 1.0 3.1 95 0.3 NW 7 7 4 4 1025.8 1026.1 1.2
28/03:00am 4.1 2.7 3.4 95 0.3 CALM 0 0 0 0 1025.6 1025.9 1.2
28/02:30am 4.9 1.5 4.2 95 0.3 WNW 11 13 6 7 1025.6 1025.9 1.2
28/02:00am 6.2 3.8 5.2 93 0.4 WNW 7 9 4 5 1025.6 1025.9 1.2
28/01:30am 6.7 3.9 5.0 89 0.8 WSW 9 13 5 7 1025.5 1025.8 1.2
28/01:00am 6.7 3.6 5.5 92 0.5 W 11 13 6 7 1025.4 1025.7 1.2
28/12:30am 7.0 4.0 5.8 92 0.5 W 11 15 6 8 1025.4 1025.7 1.2
28/12:00am 7.3 4.4 6.6 95 0.3 W 11 13 6 7 1025.5 1025.8 1.2
 
Date/Time
EST
Temp
°C
App
Temp
°C
Dew
Point
°C
Rel
Hum
%
Delta-T
°C
Wind Press
QNH
hPa
Press
MSL
hPa
Rain since
9am
mm
Dir  Spd
km/h
Gust
km/h
Spd
kts
Gust
kts
27/11:30pm 7.0 4.0 5.9 93 0.5 WSW 11 15 6 8 1025.6 1025.9 1.2
27/11:00pm 7.0 4.5 6.7 98 0.1 W 9 15 5 8 1025.4 1025.7 1.2
27/10:30pm 7.2 5.2 6.9 98 0.1 WSW 7 11 4 6 1024.8 1025.1 1.2
27/10:00pm 7.4 4.9 6.7 95 0.3 W 9 15 5 8 1024.5 1024.8 1.2
27/09:30pm 8.5 6.2 7.6 94 0.4 WSW 9 13 5 7 1024.5 1024.8 1.2
27/09:00pm 8.7 6.0 7.3 91 0.7 W 11 17 6 9 1024.0 1024.3 1.2
27/08:30pm 9.1 6.4 7.5 90 0.8 W 11 15 6 8 1023.8 1024.1 1.2
27/08:00pm 9.5 5.3 7.6 88 0.9 WSW 19 28 10 15 1023.6 1023.9 1.2
27/07:30pm 9.4 6.0 9.3 99 0.0 W 17 26 9 14 1023.3 1023.6 1.2
27/07:00pm 9.3 7.1 9.2 99 0.0 WSW 11 17 6 9 1022.9 1023.2 1.0
27/06:30pm 8.9 6.8 8.3 96 0.3 WNW 9 11 5 6 1022.3 1022.6 0.6
27/06:00pm 8.2 5.8 7.0 92 0.6 WNW 9 11 5 6 1021.9 1022.2 0.6
27/05:30pm 9.4 7.2 7.8 90 0.8 WNW 9 11 5 6 1021.3 1021.6 0.6
27/05:00pm 9.8 6.9 8.1 89 0.8 WNW 13 19 7 10 1020.8 1021.0 0.6
27/04:30pm 10.1 6.1 8.2 88 0.9 WSW 19 26 10 14 1020.7 1020.9 0.4
27/04:00pm 10.7 6.8 8.5 86 1.1 W 19 26 10 14 1020.0 1020.2 0.0
27/03:30pm 10.7 7.0 8.1 84 1.3 WSW 17 28 9 15 1019.1 1019.4 0.0
27/03:00pm 12.3 8.1 7.4 72 2.4 W 19 22 10 12 1018.7 1019.0 0.0
27/02:30pm 10.7 7.1 8.3 85 1.2 W 17 24 9 13 1018.3 1018.6 0.0
27/02:00pm 11.7 7.5 8.4 80 1.6 W 20 30 11 16 1018.1 1018.4 0.0
27/01:30pm 10.2 5.9 7.8 85 1.2 W 20 32 11 17 1017.9 1018.2 0.0
27/01:00pm 10.9 6.5 7.2 78 1.8 WSW 20 35 11 19 1017.9 1018.2 0.0
27/12:30pm 11.3 6.8 7.0 75 2.1 W 20 28 11 15 1018.0 1018.3 0.0
27/12:00pm 11.0 6.9 7.9 81 1.5 W 19 26 10 14 1018.1 1018.4 0.0
27/11:30am 10.9 6.6 7.8 81 1.5 W 20 33 11 18 1017.8 1018.1 0.0
27/11:00am 10.3 5.1 7.4 82 1.4 W 24 32 13 17 1017.6 1017.9 0.0
27/10:30am 10.3 6.0 7.9 85 1.2 W 20 33 11 18 1017.2 1017.5 0.0
27/10:00am 9.6 5.3 7.7 88 0.9 W 20 32 11 17 1016.5 1016.8 0.0
27/09:30am 9.1 4.5 8.3 95 0.4 W 22 32 12 17 1016.3 1016.6 0.0
27/09:00am 8.6 4.4 8.2 97 0.2 W 20 28 11 15 1015.8 1016.1 2.6
27/08:30am 8.7 4.2 8.4 98 0.1 WNW 22 32 12 17 1015.1 1015.3 2.6
27/08:00am 8.5 4.9 8.2 98 0.1 W 17 24 9 13 1014.8 1015.0 2.6
27/07:30am 8.7 4.0 7.6 93 0.5 W 22 33 12 18 1014.1 1014.3 2.4
27/07:00am 8.7 3.6 7.5 92 0.6 WNW 24 35 13 19 1013.6 1013.8 2.4
27/06:30am 8.9 3.4 7.4 90 0.7 WNW 26 39 14 21 1013.1 1013.3 2.4
27/06:00am 9.1 3.8 6.9 86 1.0 WNW 24 35 13 19 1012.5 1012.7 2.4
27/05:30am 8.6 4.3 7.1 90 0.7 NW 19 24 10 13 1011.9 1012.2 2.4
27/05:00am 8.5 3.6 7.0 90 0.7 NW 22 32 12 17 1011.2 1011.5 2.4
27/04:30am 8.8 3.7 7.6 92 0.6 NW 24 33 13 18 1011.1 1011.4 2.4
27/04:00am 8.7 3.6 7.5 92 0.6 NW 24 32 13 17 1010.8 1011.1 2.4
27/03:30am 9.1 4.0 7.7 91 0.7 NW 24 32 13 17 1010.7 1011.0 2.4
27/03:07am 9.4 3.5 7.3 87 1.0 NW 28 46 15 25 1010.9 1011.2 2.2
27/03:00am 9.7 3.3 7.1 84 1.2 NW 30 46 16 25 1011.0 1011.3 2.2
27/02:30am 9.3 4.1 7.4 88 0.9 NW 24 35 13 19 1011.0 1011.3 2.2
27/02:00am 8.9 4.7 7.5 91 0.7 NNW 19 24 10 13 1011.2 1011.5 2.2
27/01:30am 8.7 4.9 7.5 92 0.6 N 17 24 9 13 1011.1 1011.4 1.6
27/01:00am 8.4 4.5 7.3 93 0.5 N 17 20 9 11 1011.5 1011.8 1.6
27/12:30am 8.4 4.6 7.6 95 0.4 N 17 20 9 11 1012.1 1012.4 1.6
27/12:00am 8.4 3.6 7.5 94 0.4 N 22 30 12 16 1012.7 1012.9 1.4
 
Date/Time
EST
Temp
°C
App
Temp
°C
Dew
Point
°C
Rel
Hum
%
Delta-T
°C
Wind Press
QNH
hPa
Press
MSL
hPa
Rain since
9am
mm
Dir  Spd
km/h
Gust
km/h
Spd
kts
Gust
kts
26/11:30pm 8.4 5.3 7.3 93 0.5 N 13 17 7 9 1013.2 1013.4 0.6
26/11:00pm 8.4 4.5 6.9 90 0.7 N 17 22 9 12 1013.5 1013.7 0.6
26/10:30pm 9.0 6.1 6.6 85 1.1 N 11 17 6 9 1014.0 1014.2 0.0
26/10:00pm 9.6 5.1 6.0 78 1.7 N 19 24 10 13 1013.8 1014.0 0.0
26/09:30pm 9.5 6.1 5.9 78 1.7 NNW 13 17 7 9 1013.8 1014.0 0.0
26/09:00pm 9.6 5.1 6.1 79 1.6 N 19 22 10 12 1014.2 1014.4 0.0
26/08:30pm 9.4 6.0 6.1 80 1.5 N 13 20 7 11 1014.6 1014.8 0.0
26/08:00pm 8.8 6.8 6.3 84 1.2 NNW 6 11 3 6 1014.8 1015.0 0.0
26/07:30pm 9.1 6.1 6.2 82 1.3 NNW 11 11 6 6 1015.0 1015.2 0.0
26/07:00pm 9.1 5.7 5.8 80 1.5 NNW 13 15 7 8 1015.1 1015.3 0.0
26/06:30pm 9.1 5.6 5.5 78 1.6 NNW 13 15 7 8 1015.0 1015.2 0.0
26/06:00pm 9.4 5.8 4.8 73 2.1 NNW 13 19 7 10 1014.9 1015.1 0.0
26/05:30pm 8.6 4.9 4.6 76 1.8 NW 13 13 7 7 1014.8 1015.0 0.0
26/05:00pm 9.7 5.5 3.9 67 2.6 NW 15 17 8 9 1014.7 1014.9 0.0
26/04:30pm 11.4 6.4 4.4 62 3.2 NW 20 26 11 14 1014.8 1015.0 0.0
26/04:00pm 11.4 6.6 4.4 62 3.2 NW 19 28 10 15 1015.0 1015.2 0.0
26/03:30pm 11.3 6.2 4.1 61 3.2 WNW 20 30 11 16 1015.3 1015.6 0.0
26/03:00pm 11.3 7.0 5.2 66 2.8 NW 17 24 9 13 1015.3 1015.6 0.0
26/02:30pm 11.1 6.3 4.8 65 2.9 NW 19 24 10 13 1015.4 1015.7 0.0
26/02:00pm 12.2 6.9 5.1 62 3.3 NW 22 30 12 16 1015.9 1016.2 0.0
26/01:30pm 11.8 6.0 4.5 61 3.3 NW 24 30 13 16 1016.2 1016.5 0.0
26/01:00pm 12.5 7.5 4.7 59 3.6 NW 20 33 11 18 1016.5 1016.8 0.0
26/12:30pm 12.1 7.7 4.6 60 3.4 WNW 17 24 9 13 1017.0 1017.3 0.0
26/12:00pm 12.0 8.1 5.2 63 3.2 WNW 15 24 8 13 1017.8 1018.1 0.0

Other Formats:

Comma delimited format used in spreadsheet applications
http://www.bom.gov.au/fwo/IDN60801/IDN60801.95706.axf

JavaScript Object Notation format (JSON) in row-major order
http://www.bom.gov.au/fwo/IDN60801/IDN60801.95706.json